sensor_id;sensor_type;location;lat;lon;timestamp;P1;durP1;ratioP1;P2;durP2;ratioP2
65238;SDS011;51827;51.186;6.926;2023-04-06T00:00:25;2.90;;;1.70;;
65238;SDS011;51827;51.186;6.926;2023-04-06T00:01:25;2.20;;;1.48;;
65238;SDS011;51827;51.186;6.926;2023-04-06T00:02:25;2.23;;;1.40;;
65238;SDS011;51827;51.186;6.926;2023-04-06T00:03:25;2.90;;;1.60;;
65238;SDS011;51827;51.186;6.926;2023-04-06T00:04:26;2.93;;;1.60;;
65238;SDS011;51827;51.186;6.926;2023-04-06T00:05:26;2.63;;;1.30;;
65238;SDS011;51827;51.186;6.926;2023-04-06T00:06:26;2.30;;;1.50;;
65238;SDS011;51827;51.186;6.926;2023-04-06T00:07:26;2.30;;;1.47;;
65238;SDS011;51827;51.186;6.926;2023-04-06T00:08:27;2.20;;;1.43;;
65238;SDS011;51827;51.186;6.926;2023-04-06T00:09:27;2.50;;;1.50;;
65238;SDS011;51827;51.186;6.926;2023-04-06T00:10:27;3.07;;;1.50;;
65238;SDS011;51827;51.186;6.926;2023-04-06T00:11:28;2.73;;;1.47;;
65238;SDS011;51827;51.186;6.926;2023-04-06T00:12:28;2.50;;;1.50;;
65238;SDS011;51827;51.186;6.926;2023-04-06T00:13:28;3.33;;;1.60;;
65238;SDS011;51827;51.186;6.926;2023-04-06T00:14:29;2.57;;;1.67;;
65238;SDS011;51827;51.186;6.926;2023-04-06T00:15:29;3.20;;;1.47;;
65238;SDS011;51827;51.186;6.926;2023-04-06T00:16:29;2.67;;;1.47;;
65238;SDS011;51827;51.186;6.926;2023-04-06T00:17:30;3.07;;;1.50;;
65238;SDS011;51827;51.186;6.926;2023-04-06T00:18:30;3.20;;;1.40;;
65238;SDS011;51827;51.186;6.926;2023-04-06T00:19:30;2.67;;;1.50;;
65238;SDS011;51827;51.186;6.926;2023-04-06T00:20:30;2.70;;;1.40;;
65238;SDS011;51827;51.186;6.926;2023-04-06T00:21:31;2.23;;;1.50;;
65238;SDS011;51827;51.186;6.926;2023-04-06T00:22:31;2.20;;;1.50;;
65238;SDS011;51827;51.186;6.926;2023-04-06T00:23:31;2.63;;;1.60;;
65238;SDS011;51827;51.186;6.926;2023-04-06T00:24:32;3.10;;;1.90;;
65238;SDS011;51827;51.186;6.926;2023-04-06T00:25:32;2.47;;;1.40;;
65238;SDS011;51827;51.186;6.926;2023-04-06T00:26:32;2.20;;;1.60;;
65238;SDS011;51827;51.186;6.926;2023-04-06T00:27:33;2.40;;;1.40;;
65238;SDS011;51827;51.186;6.926;2023-04-06T00:28:33;2.53;;;1.43;;
65238;SDS011;51827;51.186;6.926;2023-04-06T00:29:33;1.97;;;1.43;;
65238;SDS011;51827;51.186;6.926;2023-04-06T00:30:33;3.43;;;1.63;;
65238;SDS011;51827;51.186;6.926;2023-04-06T00:31:34;2.50;;;1.60;;
65238;SDS011;51827;51.186;6.926;2023-04-06T00:32:34;2.57;;;1.57;;
65238;SDS011;51827;51.186;6.926;2023-04-06T00:33:35;2.80;;;1.58;;
65238;SDS011;51827;51.186;6.926;2023-04-06T00:34:35;3.07;;;1.70;;
65238;SDS011;51827;51.186;6.926;2023-04-06T00:35:35;2.87;;;1.53;;
65238;SDS011;51827;51.186;6.926;2023-04-06T00:36:35;2.73;;;1.53;;
65238;SDS011;51827;51.186;6.926;2023-04-06T00:37:36;1.93;;;1.40;;
65238;SDS011;51827;51.186;6.926;2023-04-06T00:38:36;2.20;;;1.50;;
65238;SDS011;51827;51.186;6.926;2023-04-06T00:39:36;2.60;;;1.60;;
65238;SDS011;51827;51.186;6.926;2023-04-06T00:40:37;3.00;;;1.63;;
65238;SDS011;51827;51.186;6.926;2023-04-06T00:41:37;2.00;;;1.30;;
65238;SDS011;51827;51.186;6.926;2023-04-06T00:42:41;5.20;;;1.65;;
65238;SDS011;51827;51.186;6.926;2023-04-06T00:43:42;2.87;;;1.60;;
65238;SDS011;51827;51.186;6.926;2023-04-06T00:44:42;3.60;;;1.60;;
65238;SDS011;51827;51.186;6.926;2023-04-06T00:45:42;2.90;;;1.60;;
65238;SDS011;51827;51.186;6.926;2023-04-06T00:46:42;2.57;;;1.57;;
65238;SDS011;51827;51.186;6.926;2023-04-06T00:47:43;3.67;;;1.80;;
65238;SDS011;51827;51.186;6.926;2023-04-06T00:48:43;3.00;;;1.80;;
65238;SDS011;51827;51.186;6.926;2023-04-06T00:49:44;3.13;;;1.53;;
65238;SDS011;51827;51.186;6.926;2023-04-06T00:50:44;2.63;;;1.60;;
65238;SDS011;51827;51.186;6.926;2023-04-06T00:51:44;3.57;;;1.57;;
65238;SDS011;51827;51.186;6.926;2023-04-06T00:52:44;2.93;;;1.40;;
65238;SDS011;51827;51.186;6.926;2023-04-06T00:53:45;2.73;;;1.57;;
65238;SDS011;51827;51.186;6.926;2023-04-06T00:54:45;2.30;;;1.50;;
65238;SDS011;51827;51.186;6.926;2023-04-06T00:55:46;2.67;;;1.70;;
65238;SDS011;51827;51.186;6.926;2023-04-06T00:56:46;2.50;;;1.60;;
65238;SDS011;51827;51.186;6.926;2023-04-06T00:57:46;3.50;;;1.70;;
65238;SDS011;51827;51.186;6.926;2023-04-06T00:58:46;1.90;;;1.37;;
65238;SDS011;51827;51.186;6.926;2023-04-06T00:59:47;1.90;;;1.40;;
65238;SDS011;51827;51.186;6.926;2023-04-06T01:00:47;2.73;;;1.77;;
65238;SDS011;51827;51.186;6.926;2023-04-06T01:01:47;2.40;;;1.70;;
65238;SDS011;51827;51.186;6.926;2023-04-06T01:02:48;2.73;;;1.60;;
65238;SDS011;51827;51.186;6.926;2023-04-06T01:03:48;3.20;;;1.83;;
65238;SDS011;51827;51.186;6.926;2023-04-06T01:04:49;3.17;;;1.48;;
65238;SDS011;51827;51.186;6.926;2023-04-06T01:05:49;2.67;;;1.57;;
65238;SDS011;51827;51.186;6.926;2023-04-06T01:06:49;3.30;;;1.63;;
65238;SDS011;51827;51.186;6.926;2023-04-06T01:07:50;2.60;;;1.60;;
65238;SDS011;51827;51.186;6.926;2023-04-06T01:08:50;2.00;;;1.47;;
65238;SDS011;51827;51.186;6.926;2023-04-06T01:09:52;2.90;;;1.70;;
65238;SDS011;51827;51.186;6.926;2023-04-06T01:10:53;2.60;;;1.45;;
65238;SDS011;51827;51.186;6.926;2023-04-06T01:11:53;2.23;;;1.47;;
65238;SDS011;51827;51.186;6.926;2023-04-06T01:12:54;2.83;;;1.57;;
65238;SDS011;51827;51.186;6.926;2023-04-06T01:13:54;3.90;;;1.70;;
65238;SDS011;51827;51.186;6.926;2023-04-06T01:14:55;2.53;;;1.52;;
65238;SDS011;51827;51.186;6.926;2023-04-06T01:15:55;2.45;;;1.50;;
65238;SDS011;51827;51.186;6.926;2023-04-06T01:16:57;2.95;;;1.80;;
65238;SDS011;51827;51.186;6.926;2023-04-06T01:17:58;3.38;;;1.90;;
65238;SDS011;51827;51.186;6.926;2023-04-06T01:18:58;2.78;;;1.70;;
65238;SDS011;51827;51.186;6.926;2023-04-06T01:19:59;2.75;;;1.65;;
65238;SDS011;51827;51.186;6.926;2023-04-06T01:20:59;2.53;;;1.53;;
65238;SDS011;51827;51.186;6.926;2023-04-06T01:21:59;1.90;;;1.50;;
65238;SDS011;51827;51.186;6.926;2023-04-06T01:23:00;3.10;;;1.53;;
65238;SDS011;51827;51.186;6.926;2023-04-06T01:24:00;2.67;;;1.50;;
65238;SDS011;51827;51.186;6.926;2023-04-06T01:25:00;2.73;;;1.70;;
65238;SDS011;51827;51.186;6.926;2023-04-06T01:26:01;2.60;;;1.50;;
65238;SDS011;51827;51.186;6.926;2023-04-06T01:27:01;2.67;;;1.70;;
65238;SDS011;51827;51.186;6.926;2023-04-06T01:28:01;2.37;;;1.60;;
65238;SDS011;51827;51.186;6.926;2023-04-06T01:29:02;3.38;;;1.70;;
65238;SDS011;51827;51.186;6.926;2023-04-06T01:30:03;2.22;;;1.55;;
65238;SDS011;51827;51.186;6.926;2023-04-06T01:31:06;2.88;;;1.58;;
65238;SDS011;51827;51.186;6.926;2023-04-06T01:32:07;3.75;;;1.70;;
65238;SDS011;51827;51.186;6.926;2023-04-06T01:33:07;3.30;;;1.67;;
65238;SDS011;51827;51.186;6.926;2023-04-06T01:34:08;2.47;;;1.63;;
65238;SDS011;51827;51.186;6.926;2023-04-06T01:35:08;2.47;;;1.60;;
65238;SDS011;51827;51.186;6.926;2023-04-06T01:36:08;2.47;;;1.67;;
65238;SDS011;51827;51.186;6.926;2023-04-06T01:37:08;3.07;;;1.73;;
65238;SDS011;51827;51.186;6.926;2023-04-06T01:38:09;2.67;;;1.70;;
65238;SDS011;51827;51.186;6.926;2023-04-06T01:39:09;3.30;;;1.80;;
65238;SDS011;51827;51.186;6.926;2023-04-06T01:40:09;2.43;;;1.50;;
65238;SDS011;51827;51.186;6.926;2023-04-06T01:41:10;2.83;;;1.92;;
65238;SDS011;51827;51.186;6.926;2023-04-06T01:42:10;4.23;;;1.63;;
65238;SDS011;51827;51.186;6.926;2023-04-06T01:43:11;2.60;;;1.60;;
65238;SDS011;51827;51.186;6.926;2023-04-06T01:44:11;3.00;;;1.70;;
65238;SDS011;51827;51.186;6.926;2023-04-06T01:45:11;2.20;;;1.60;;
65238;SDS011;51827;51.186;6.926;2023-04-06T01:46:12;3.90;;;1.73;;
65238;SDS011;51827;51.186;6.926;2023-04-06T01:47:12;2.63;;;1.50;;
65238;SDS011;51827;51.186;6.926;2023-04-06T01:48:12;2.73;;;1.60;;
65238;SDS011;51827;51.186;6.926;2023-04-06T01:49:13;3.10;;;1.67;;
65238;SDS011;51827;51.186;6.926;2023-04-06T01:50:13;2.37;;;1.60;;
65238;SDS011;51827;51.186;6.926;2023-04-06T01:51:13;3.93;;;1.57;;
65238;SDS011;51827;51.186;6.926;2023-04-06T01:52:13;3.37;;;1.70;;
65238;SDS011;51827;51.186;6.926;2023-04-06T01:53:14;3.57;;;1.70;;
65238;SDS011;51827;51.186;6.926;2023-04-06T01:54:14;2.23;;;1.50;;
65238;SDS011;51827;51.186;6.926;2023-04-06T01:55:14;2.20;;;1.57;;
65238;SDS011;51827;51.186;6.926;2023-04-06T01:56:15;3.07;;;1.60;;
65238;SDS011;51827;51.186;6.926;2023-04-06T01:57:15;2.93;;;1.70;;
65238;SDS011;51827;51.186;6.926;2023-04-06T01:58:15;2.23;;;1.40;;
65238;SDS011;51827;51.186;6.926;2023-04-06T01:59:15;2.70;;;1.60;;
65238;SDS011;51827;51.186;6.926;2023-04-06T02:00:16;2.90;;;1.80;;
65238;SDS011;51827;51.186;6.926;2023-04-06T02:01:16;3.28;;;1.60;;
65238;SDS011;51827;51.186;6.926;2023-04-06T02:02:16;3.70;;;1.87;;
65238;SDS011;51827;51.186;6.926;2023-04-06T02:03:17;3.30;;;1.73;;
65238;SDS011;51827;51.186;6.926;2023-04-06T02:04:17;2.27;;;1.50;;
65238;SDS011;51827;51.186;6.926;2023-04-06T02:05:18;4.80;;;1.73;;
65238;SDS011;51827;51.186;6.926;2023-04-06T02:06:19;2.88;;;1.60;;
65238;SDS011;51827;51.186;6.926;2023-04-06T02:07:20;3.10;;;1.57;;
65238;SDS011;51827;51.186;6.926;2023-04-06T02:08:20;3.27;;;1.80;;
65238;SDS011;51827;51.186;6.926;2023-04-06T02:09:20;3.17;;;1.90;;
65238;SDS011;51827;51.186;6.926;2023-04-06T02:10:20;2.70;;;1.40;;
65238;SDS011;51827;51.186;6.926;2023-04-06T02:11:21;3.30;;;1.70;;
65238;SDS011;51827;51.186;6.926;2023-04-06T02:12:21;2.67;;;1.70;;
65238;SDS011;51827;51.186;6.926;2023-04-06T02:13:21;2.63;;;1.60;;
65238;SDS011;51827;51.186;6.926;2023-04-06T02:14:24;4.10;;;1.80;;
65238;SDS011;51827;51.186;6.926;2023-04-06T02:15:25;2.30;;;1.42;;
65238;SDS011;51827;51.186;6.926;2023-04-06T02:16:26;3.72;;;1.67;;
65238;SDS011;51827;51.186;6.926;2023-04-06T02:17:26;2.67;;;1.70;;
65238;SDS011;51827;51.186;6.926;2023-04-06T02:18:26;2.50;;;1.40;;
65238;SDS011;51827;51.186;6.926;2023-04-06T02:19:27;3.40;;;1.70;;
65238;SDS011;51827;51.186;6.926;2023-04-06T02:20:27;2.13;;;1.53;;
65238;SDS011;51827;51.186;6.926;2023-04-06T02:21:27;2.47;;;1.50;;
65238;SDS011;51827;51.186;6.926;2023-04-06T02:22:27;2.63;;;1.63;;
65238;SDS011;51827;51.186;6.926;2023-04-06T02:23:28;2.63;;;1.60;;
65238;SDS011;51827;51.186;6.926;2023-04-06T02:24:28;4.73;;;1.77;;
65238;SDS011;51827;51.186;6.926;2023-04-06T02:25:28;2.00;;;1.50;;
65238;SDS011;51827;51.186;6.926;2023-04-06T02:26:28;2.53;;;1.80;;
65238;SDS011;51827;51.186;6.926;2023-04-06T02:27:29;3.33;;;1.70;;
65238;SDS011;51827;51.186;6.926;2023-04-06T02:28:29;3.37;;;1.73;;
65238;SDS011;51827;51.186;6.926;2023-04-06T02:29:29;2.77;;;1.80;;
65238;SDS011;51827;51.186;6.926;2023-04-06T02:30:30;2.13;;;1.40;;
65238;SDS011;51827;51.186;6.926;2023-04-06T02:31:30;3.00;;;1.87;;
65238;SDS011;51827;51.186;6.926;2023-04-06T02:32:30;3.40;;;1.70;;
65238;SDS011;51827;51.186;6.926;2023-04-06T02:33:30;2.53;;;1.60;;
65238;SDS011;51827;51.186;6.926;2023-04-06T02:34:31;3.87;;;1.80;;
65238;SDS011;51827;51.186;6.926;2023-04-06T02:35:31;3.27;;;1.70;;
65238;SDS011;51827;51.186;6.926;2023-04-06T02:36:31;2.63;;;1.60;;
65238;SDS011;51827;51.186;6.926;2023-04-06T02:37:32;2.27;;;1.50;;
65238;SDS011;51827;51.186;6.926;2023-04-06T02:38:32;2.60;;;1.70;;
65238;SDS011;51827;51.186;6.926;2023-04-06T02:39:32;4.13;;;1.70;;
65238;SDS011;51827;51.186;6.926;2023-04-06T02:40:33;3.10;;;1.87;;
65238;SDS011;51827;51.186;6.926;2023-04-06T02:41:33;5.47;;;1.60;;
65238;SDS011;51827;51.186;6.926;2023-04-06T02:42:33;3.53;;;1.87;;
65238;SDS011;51827;51.186;6.926;2023-04-06T02:43:33;2.23;;;1.70;;
65238;SDS011;51827;51.186;6.926;2023-04-06T02:44:34;4.00;;;1.80;;
65238;SDS011;51827;51.186;6.926;2023-04-06T02:45:34;3.47;;;1.83;;
65238;SDS011;51827;51.186;6.926;2023-04-06T02:46:35;3.00;;;2.00;;
65238;SDS011;51827;51.186;6.926;2023-04-06T02:47:35;2.30;;;1.60;;
65238;SDS011;51827;51.186;6.926;2023-04-06T02:48:35;3.90;;;1.70;;
65238;SDS011;51827;51.186;6.926;2023-04-06T02:49:36;2.77;;;1.57;;
65238;SDS011;51827;51.186;6.926;2023-04-06T02:50:36;5.50;;;1.85;;
65238;SDS011;51827;51.186;6.926;2023-04-06T02:51:36;4.37;;;1.90;;
65238;SDS011;51827;51.186;6.926;2023-04-06T02:52:37;3.60;;;1.80;;
65238;SDS011;51827;51.186;6.926;2023-04-06T02:53:37;3.30;;;1.93;;
65238;SDS011;51827;51.186;6.926;2023-04-06T02:54:37;2.60;;;1.53;;
65238;SDS011;51827;51.186;6.926;2023-04-06T02:55:37;3.17;;;1.70;;
65238;SDS011;51827;51.186;6.926;2023-04-06T02:56:38;3.73;;;1.73;;
65238;SDS011;51827;51.186;6.926;2023-04-06T02:57:38;3.37;;;1.53;;
65238;SDS011;51827;51.186;6.926;2023-04-06T02:58:38;4.03;;;1.60;;
65238;SDS011;51827;51.186;6.926;2023-04-06T02:59:39;3.17;;;1.67;;
65238;SDS011;51827;51.186;6.926;2023-04-06T03:00:39;3.77;;;1.73;;
65238;SDS011;51827;51.186;6.926;2023-04-06T03:01:39;4.00;;;1.80;;
65238;SDS011;51827;51.186;6.926;2023-04-06T03:02:39;2.53;;;1.60;;
65238;SDS011;51827;51.186;6.926;2023-04-06T03:03:40;2.90;;;1.63;;
65238;SDS011;51827;51.186;6.926;2023-04-06T03:04:40;3.37;;;1.83;;
65238;SDS011;51827;51.186;6.926;2023-04-06T03:05:40;3.23;;;1.57;;
65238;SDS011;51827;51.186;6.926;2023-04-06T03:06:41;3.00;;;1.80;;
65238;SDS011;51827;51.186;6.926;2023-04-06T03:07:41;2.80;;;1.60;;
65238;SDS011;51827;51.186;6.926;2023-04-06T03:08:41;2.60;;;1.63;;
65238;SDS011;51827;51.186;6.926;2023-04-06T03:09:41;2.83;;;1.80;;
65238;SDS011;51827;51.186;6.926;2023-04-06T03:10:42;2.53;;;1.63;;
65238;SDS011;51827;51.186;6.926;2023-04-06T03:11:42;3.27;;;1.70;;
65238;SDS011;51827;51.186;6.926;2023-04-06T03:12:42;2.83;;;1.80;;
65238;SDS011;51827;51.186;6.926;2023-04-06T03:13:43;4.23;;;1.90;;
65238;SDS011;51827;51.186;6.926;2023-04-06T03:14:43;3.60;;;1.93;;
65238;SDS011;51827;51.186;6.926;2023-04-06T03:15:43;4.37;;;1.67;;
65238;SDS011;51827;51.186;6.926;2023-04-06T03:16:43;3.20;;;1.50;;
65238;SDS011;51827;51.186;6.926;2023-04-06T03:17:44;3.33;;;1.70;;
65238;SDS011;51827;51.186;6.926;2023-04-06T03:18:44;2.93;;;1.90;;
65238;SDS011;51827;51.186;6.926;2023-04-06T03:19:44;2.37;;;1.60;;
65238;SDS011;51827;51.186;6.926;2023-04-06T03:20:45;3.07;;;1.90;;
65238;SDS011;51827;51.186;6.926;2023-04-06T03:21:45;2.27;;;1.53;;
65238;SDS011;51827;51.186;6.926;2023-04-06T03:22:45;3.10;;;1.80;;
65238;SDS011;51827;51.186;6.926;2023-04-06T03:23:45;3.00;;;1.60;;
65238;SDS011;51827;51.186;6.926;2023-04-06T03:24:46;4.30;;;1.63;;
65238;SDS011;51827;51.186;6.926;2023-04-06T03:25:46;2.50;;;1.70;;
65238;SDS011;51827;51.186;6.926;2023-04-06T03:26:46;2.67;;;1.58;;
65238;SDS011;51827;51.186;6.926;2023-04-06T03:27:47;2.43;;;1.70;;
65238;SDS011;51827;51.186;6.926;2023-04-06T03:28:47;3.63;;;1.90;;
65238;SDS011;51827;51.186;6.926;2023-04-06T03:29:47;2.90;;;1.60;;
65238;SDS011;51827;51.186;6.926;2023-04-06T03:30:48;3.03;;;2.00;;
65238;SDS011;51827;51.186;6.926;2023-04-06T03:31:49;2.97;;;1.80;;
65238;SDS011;51827;51.186;6.926;2023-04-06T03:32:49;3.13;;;1.57;;
65238;SDS011;51827;51.186;6.926;2023-04-06T03:33:49;3.03;;;1.77;;
65238;SDS011;51827;51.186;6.926;2023-04-06T03:34:50;2.80;;;1.80;;
65238;SDS011;51827;51.186;6.926;2023-04-06T03:35:50;2.87;;;1.83;;
65238;SDS011;51827;51.186;6.926;2023-04-06T03:36:50;3.30;;;1.80;;
65238;SDS011;51827;51.186;6.926;2023-04-06T03:37:50;3.03;;;1.70;;
65238;SDS011;51827;51.186;6.926;2023-04-06T03:38:51;3.03;;;1.67;;
65238;SDS011;51827;51.186;6.926;2023-04-06T03:39:51;6.93;;;2.20;;
65238;SDS011;51827;51.186;6.926;2023-04-06T03:40:52;2.40;;;1.63;;
65238;SDS011;51827;51.186;6.926;2023-04-06T03:41:52;8.43;;;1.90;;
65238;SDS011;51827;51.186;6.926;2023-04-06T03:42:52;4.93;;;2.00;;
65238;SDS011;51827;51.186;6.926;2023-04-06T03:43:53;9.20;;;2.33;;
65238;SDS011;51827;51.186;6.926;2023-04-06T03:44:53;9.87;;;2.63;;
65238;SDS011;51827;51.186;6.926;2023-04-06T03:45:53;13.37;;;2.30;;
65238;SDS011;51827;51.186;6.926;2023-04-06T03:46:53;15.97;;;2.57;;
65238;SDS011;51827;51.186;6.926;2023-04-06T03:47:54;6.63;;;2.50;;
65238;SDS011;51827;51.186;6.926;2023-04-06T03:48:54;8.67;;;2.40;;
65238;SDS011;51827;51.186;6.926;2023-04-06T03:49:54;12.67;;;2.50;;
65238;SDS011;51827;51.186;6.926;2023-04-06T03:50:54;9.83;;;2.33;;
65238;SDS011;51827;51.186;6.926;2023-04-06T03:51:55;8.60;;;2.73;;
65238;SDS011;51827;51.186;6.926;2023-04-06T03:53:56;7.18;;;2.45;;
65238;SDS011;51827;51.186;6.926;2023-04-06T03:54:56;7.53;;;2.70;;
65238;SDS011;51827;51.186;6.926;2023-04-06T03:55:57;7.80;;;2.20;;
65238;SDS011;51827;51.186;6.926;2023-04-06T03:56:57;9.93;;;2.37;;
65238;SDS011;51827;51.186;6.926;2023-04-06T03:57:57;5.87;;;2.40;;
65238;SDS011;51827;51.186;6.926;2023-04-06T03:58:57;4.63;;;2.07;;
65238;SDS011;51827;51.186;6.926;2023-04-06T03:59:58;9.87;;;2.43;;
65238;SDS011;51827;51.186;6.926;2023-04-06T04:00:58;5.43;;;1.90;;
65238;SDS011;51827;51.186;6.926;2023-04-06T04:01:58;6.07;;;2.10;;
65238;SDS011;51827;51.186;6.926;2023-04-06T04:02:59;6.13;;;2.43;;
65238;SDS011;51827;51.186;6.926;2023-04-06T04:03:59;6.43;;;2.30;;
65238;SDS011;51827;51.186;6.926;2023-04-06T04:04:59;8.43;;;2.03;;
65238;SDS011;51827;51.186;6.926;2023-04-06T04:05:59;6.10;;;2.13;;
65238;SDS011;51827;51.186;6.926;2023-04-06T04:07:00;11.60;;;2.63;;
65238;SDS011;51827;51.186;6.926;2023-04-06T04:08:00;4.90;;;2.23;;
65238;SDS011;51827;51.186;6.926;2023-04-06T04:09:00;5.30;;;3.00;;
65238;SDS011;51827;51.186;6.926;2023-04-06T04:10:00;5.57;;;2.10;;
65238;SDS011;51827;51.186;6.926;2023-04-06T04:11:01;7.43;;;2.90;;
65238;SDS011;51827;51.186;6.926;2023-04-06T04:12:01;12.52;;;3.15;;
65238;SDS011;51827;51.186;6.926;2023-04-06T04:13:02;7.00;;;3.60;;
65238;SDS011;51827;51.186;6.926;2023-04-06T04:14:02;8.57;;;4.80;;
65238;SDS011;51827;51.186;6.926;2023-04-06T04:15:02;9.67;;;5.33;;
65238;SDS011;51827;51.186;6.926;2023-04-06T04:16:03;9.48;;;5.75;;
65238;SDS011;51827;51.186;6.926;2023-04-06T04:17:03;12.57;;;7.28;;
65238;SDS011;51827;51.186;6.926;2023-04-06T04:18:03;17.47;;;8.00;;
65238;SDS011;51827;51.186;6.926;2023-04-06T04:19:04;17.73;;;8.13;;
65238;SDS011;51827;51.186;6.926;2023-04-06T04:20:04;24.65;;;8.80;;
65238;SDS011;51827;51.186;6.926;2023-04-06T04:21:05;58.95;;;13.55;;
65238;SDS011;51827;51.186;6.926;2023-04-06T04:22:06;56.03;;;12.63;;
65238;SDS011;51827;51.186;6.926;2023-04-06T04:23:06;65.17;;;13.50;;
65238;SDS011;51827;51.186;6.926;2023-04-06T04:24:06;68.10;;;13.57;;
65238;SDS011;51827;51.186;6.926;2023-04-06T04:25:07;38.57;;;11.30;;
65238;SDS011;51827;51.186;6.926;2023-04-06T04:26:07;54.63;;;11.43;;
65238;SDS011;51827;51.186;6.926;2023-04-06T04:27:08;47.60;;;10.52;;
65238;SDS011;51827;51.186;6.926;2023-04-06T04:28:08;51.30;;;10.60;;
65238;SDS011;51827;51.186;6.926;2023-04-06T04:29:08;48.17;;;10.50;;
65238;SDS011;51827;51.186;6.926;2023-04-06T04:30:09;49.93;;;11.63;;
65238;SDS011;51827;51.186;6.926;2023-04-06T04:31:09;47.85;;;11.32;;
65238;SDS011;51827;51.186;6.926;2023-04-06T04:32:09;46.60;;;9.67;;
65238;SDS011;51827;51.186;6.926;2023-04-06T04:33:10;39.93;;;8.87;;
65238;SDS011;51827;51.186;6.926;2023-04-06T04:34:10;37.27;;;9.07;;
65238;SDS011;51827;51.186;6.926;2023-04-06T04:35:10;36.13;;;9.10;;
65238;SDS011;51827;51.186;6.926;2023-04-06T04:36:11;31.60;;;8.27;;
65238;SDS011;51827;51.186;6.926;2023-04-06T04:37:11;31.03;;;8.67;;
65238;SDS011;51827;51.186;6.926;2023-04-06T04:38:11;39.03;;;8.40;;
65238;SDS011;51827;51.186;6.926;2023-04-06T04:39:11;32.70;;;7.83;;
65238;SDS011;51827;51.186;6.926;2023-04-06T04:40:12;32.07;;;7.67;;
65238;SDS011;51827;51.186;6.926;2023-04-06T04:41:12;27.60;;;7.20;;
65238;SDS011;51827;51.186;6.926;2023-04-06T04:42:12;38.30;;;7.47;;
65238;SDS011;51827;51.186;6.926;2023-04-06T04:43:13;29.30;;;6.80;;
65238;SDS011;51827;51.186;6.926;2023-04-06T04:44:13;32.10;;;7.47;;
65238;SDS011;51827;51.186;6.926;2023-04-06T04:45:13;30.00;;;7.00;;
65238;SDS011;51827;51.186;6.926;2023-04-06T04:46:14;19.80;;;6.80;;
65238;SDS011;51827;51.186;6.926;2023-04-06T04:47:14;28.60;;;6.30;;
65238;SDS011;51827;51.186;6.926;2023-04-06T04:48:14;25.53;;;5.90;;
65238;SDS011;51827;51.186;6.926;2023-04-06T04:49:14;29.73;;;6.17;;
65238;SDS011;51827;51.186;6.926;2023-04-06T04:50:15;25.00;;;6.67;;
65238;SDS011;51827;51.186;6.926;2023-04-06T04:51:15;25.08;;;6.95;;
65238;SDS011;51827;51.186;6.926;2023-04-06T04:52:15;22.37;;;5.33;;
65238;SDS011;51827;51.186;6.926;2023-04-06T04:53:16;18.27;;;5.37;;
65238;SDS011;51827;51.186;6.926;2023-04-06T04:54:16;23.60;;;5.80;;
65238;SDS011;51827;51.186;6.926;2023-04-06T04:55:16;26.27;;;5.53;;
65238;SDS011;51827;51.186;6.926;2023-04-06T04:56:16;18.73;;;5.87;;
65238;SDS011;51827;51.186;6.926;2023-04-06T04:57:17;22.00;;;6.00;;
65238;SDS011;51827;51.186;6.926;2023-04-06T04:58:17;22.27;;;6.10;;
65238;SDS011;51827;51.186;6.926;2023-04-06T04:59:17;23.90;;;5.47;;
65238;SDS011;51827;51.186;6.926;2023-04-06T05:00:18;23.60;;;5.70;;
65238;SDS011;51827;51.186;6.926;2023-04-06T05:01:18;24.48;;;5.38;;
65238;SDS011;51827;51.186;6.926;2023-04-06T05:02:18;15.77;;;4.90;;
65238;SDS011;51827;51.186;6.926;2023-04-06T05:03:22;19.57;;;4.77;;
65238;SDS011;51827;51.186;6.926;2023-04-06T05:04:23;19.58;;;4.97;;
65238;SDS011;51827;51.186;6.926;2023-04-06T05:05:24;20.50;;;5.07;;
65238;SDS011;51827;51.186;6.926;2023-04-06T05:06:24;23.30;;;4.53;;
65238;SDS011;51827;51.186;6.926;2023-04-06T05:07:24;16.90;;;4.53;;
65238;SDS011;51827;51.186;6.926;2023-04-06T05:08:24;19.77;;;4.83;;
65238;SDS011;51827;51.186;6.926;2023-04-06T05:09:25;18.33;;;4.53;;
65238;SDS011;51827;51.186;6.926;2023-04-06T05:10:25;16.40;;;4.93;;
65238;SDS011;51827;51.186;6.926;2023-04-06T05:11:25;17.23;;;4.97;;
65238;SDS011;51827;51.186;6.926;2023-04-06T05:12:25;20.67;;;4.13;;
65238;SDS011;51827;51.186;6.926;2023-04-06T05:13:26;15.75;;;4.55;;
65238;SDS011;51827;51.186;6.926;2023-04-06T05:14:27;16.53;;;5.13;;
65238;SDS011;51827;51.186;6.926;2023-04-06T05:15:27;17.27;;;4.47;;
65238;SDS011;51827;51.186;6.926;2023-04-06T05:16:28;15.67;;;4.03;;
65238;SDS011;51827;51.186;6.926;2023-04-06T05:17:28;20.53;;;6.37;;
65238;SDS011;51827;51.186;6.926;2023-04-06T05:18:28;14.25;;;4.07;;
65238;SDS011;51827;51.186;6.926;2023-04-06T05:19:29;22.40;;;4.57;;
65238;SDS011;51827;51.186;6.926;2023-04-06T05:20:30;14.60;;;4.38;;
65238;SDS011;51827;51.186;6.926;2023-04-06T05:21:30;18.35;;;4.57;;
65238;SDS011;51827;51.186;6.926;2023-04-06T05:22:30;15.93;;;4.10;;
65238;SDS011;51827;51.186;6.926;2023-04-06T05:23:30;14.13;;;4.77;;
65238;SDS011;51827;51.186;6.926;2023-04-06T05:24:31;17.80;;;3.90;;
65238;SDS011;51827;51.186;6.926;2023-04-06T05:25:31;16.03;;;3.83;;
65238;SDS011;51827;51.186;6.926;2023-04-06T05:26:32;14.23;;;4.03;;
65238;SDS011;51827;51.186;6.926;2023-04-06T05:27:32;11.87;;;4.20;;
65238;SDS011;51827;51.186;6.926;2023-04-06T05:28:33;11.43;;;3.93;;
65238;SDS011;51827;51.186;6.926;2023-04-06T05:29:33;14.27;;;3.80;;
65238;SDS011;51827;51.186;6.926;2023-04-06T05:30:33;12.37;;;3.77;;
65238;SDS011;51827;51.186;6.926;2023-04-06T05:31:34;14.20;;;3.73;;
65238;SDS011;51827;51.186;6.926;2023-04-06T05:32:34;13.20;;;3.70;;
65238;SDS011;51827;51.186;6.926;2023-04-06T05:33:34;13.83;;;3.60;;
65238;SDS011;51827;51.186;6.926;2023-04-06T05:34:35;10.87;;;3.60;;
65238;SDS011;51827;51.186;6.926;2023-04-06T05:35:35;12.17;;;3.60;;
65238;SDS011;51827;51.186;6.926;2023-04-06T05:36:35;10.67;;;3.40;;
65238;SDS011;51827;51.186;6.926;2023-04-06T05:37:35;12.13;;;3.63;;
65238;SDS011;51827;51.186;6.926;2023-04-06T05:38:36;11.53;;;3.50;;
65238;SDS011;51827;51.186;6.926;2023-04-06T05:39:36;11.03;;;3.20;;
65238;SDS011;51827;51.186;6.926;2023-04-06T05:40:36;14.23;;;3.10;;
65238;SDS011;51827;51.186;6.926;2023-04-06T05:41:37;9.10;;;3.40;;
65238;SDS011;51827;51.186;6.926;2023-04-06T05:42:41;9.40;;;3.58;;
65238;SDS011;51827;51.186;6.926;2023-04-06T05:43:42;13.00;;;3.58;;
65238;SDS011;51827;51.186;6.926;2023-04-06T05:44:42;9.87;;;3.13;;
65238;SDS011;51827;51.186;6.926;2023-04-06T05:45:45;11.13;;;3.27;;
65238;SDS011;51827;51.186;6.926;2023-04-06T05:46:46;10.45;;;3.45;;
65238;SDS011;51827;51.186;6.926;2023-04-06T05:47:46;10.50;;;3.10;;
65238;SDS011;51827;51.186;6.926;2023-04-06T05:48:46;9.23;;;3.57;;
65238;SDS011;51827;51.186;6.926;2023-04-06T05:49:47;10.95;;;3.20;;
65238;SDS011;51827;51.186;6.926;2023-04-06T05:50:50;11.13;;;3.20;;
65238;SDS011;51827;51.186;6.926;2023-04-06T05:51:50;8.82;;;2.70;;
65238;SDS011;51827;51.186;6.926;2023-04-06T05:52:51;8.67;;;2.90;;
65238;SDS011;51827;51.186;6.926;2023-04-06T05:53:51;13.00;;;3.40;;
65238;SDS011;51827;51.186;6.926;2023-04-06T05:54:51;10.33;;;3.43;;
65238;SDS011;51827;51.186;6.926;2023-04-06T05:55:52;12.00;;;3.00;;
65238;SDS011;51827;51.186;6.926;2023-04-06T05:56:52;8.93;;;2.87;;
65238;SDS011;51827;51.186;6.926;2023-04-06T05:57:53;9.70;;;3.30;;
65238;SDS011;51827;51.186;6.926;2023-04-06T05:58:53;10.80;;;2.93;;
65238;SDS011;51827;51.186;6.926;2023-04-06T05:59:53;9.20;;;3.30;;
65238;SDS011;51827;51.186;6.926;2023-04-06T06:00:57;9.00;;;3.03;;
65238;SDS011;51827;51.186;6.926;2023-04-06T06:02:00;9.15;;;3.15;;
65238;SDS011;51827;51.186;6.926;2023-04-06T06:03:01;11.03;;;2.80;;